createdAt,value
2022-09-25T00:01:44.722Z,11.40
2022-09-25T00:05:06.928Z,11.40
2022-09-25T00:08:29.863Z,11.40
2022-09-25T00:11:51.447Z,11.40
2022-09-25T00:15:13.000Z,11.40
2022-09-25T00:18:34.540Z,11.30
2022-09-25T00:21:56.117Z,11.30
2022-09-25T00:25:19.065Z,11.30
2022-09-25T00:28:41.285Z,11.30
2022-09-25T00:32:02.890Z,11.30
2022-09-25T00:35:24.457Z,11.20
2022-09-25T00:38:46.428Z,11.20
2022-09-25T00:42:11.307Z,11.10
2022-09-25T00:45:32.865Z,11.00
2022-09-25T00:48:58.471Z,11.00
2022-09-25T00:52:20.048Z,10.90
2022-09-25T00:55:43.183Z,10.90
2022-09-25T00:59:08.141Z,10.80
2022-09-25T01:02:30.999Z,10.80
2022-09-25T01:05:52.825Z,10.80
2022-09-25T01:09:14.403Z,10.70
2022-09-25T01:12:36.744Z,10.70
2022-09-25T01:16:03.035Z,10.70
2022-09-25T01:19:33.502Z,10.70
2022-09-25T01:23:02.905Z,10.70
2022-09-25T01:26:34.603Z,10.60
2022-09-25T01:30:01.860Z,10.60
2022-09-25T01:33:25.574Z,10.60
2022-09-25T01:36:48.342Z,10.60
2022-09-25T01:40:11.649Z,10.60
2022-09-25T01:43:35.000Z,10.60
2022-09-25T01:47:02.530Z,10.60
2022-09-25T01:50:27.379Z,10.60
2022-09-25T01:53:51.423Z,10.60
2022-09-25T01:57:16.405Z,10.60
2022-09-25T02:00:39.838Z,10.70
2022-09-25T02:04:04.738Z,10.70
2022-09-25T02:07:28.722Z,10.70
2022-09-25T02:10:52.114Z,10.70
2022-09-25T02:14:15.458Z,10.80
2022-09-25T02:17:40.698Z,10.80
2022-09-25T02:21:08.635Z,10.80
2022-09-25T02:24:33.672Z,10.90
2022-09-25T02:27:55.292Z,10.90
2022-09-25T02:31:17.145Z,11.00
2022-09-25T02:34:38.863Z,11.00
2022-09-25T02:38:02.826Z,11.10
2022-09-25T02:41:31.616Z,11.10
2022-09-25T02:45:02.597Z,11.20
2022-09-25T02:48:28.790Z,11.30
2022-09-25T02:51:54.785Z,11.20
2022-09-25T02:55:22.501Z,11.20
2022-09-25T02:58:46.083Z,11.30
2022-09-25T03:02:08.320Z,11.30
2022-09-25T03:05:30.607Z,11.30
2022-09-25T03:08:53.485Z,11.30
2022-09-25T03:12:16.457Z,11.30
2022-09-25T03:15:38.011Z,11.30
2022-09-25T03:18:59.636Z,11.30
2022-09-25T03:22:21.187Z,11.30
2022-09-25T03:25:47.436Z,11.30
2022-09-25T03:29:13.168Z,11.30
2022-09-25T03:32:34.732Z,11.30
2022-09-25T03:36:06.762Z,11.40
2022-09-25T03:39:28.328Z,11.40
2022-09-25T03:42:49.912Z,11.50
2022-09-25T03:46:14.099Z,11.40
2022-09-25T03:49:35.871Z,11.50
2022-09-25T03:52:57.416Z,11.50
2022-09-25T03:56:20.433Z,11.40
2022-09-25T03:59:42.001Z,11.40
2022-09-25T04:03:04.904Z,11.30
2022-09-25T04:06:26.760Z,11.40
2022-09-25T04:09:48.318Z,11.30
2022-09-25T04:13:10.103Z,11.30
2022-09-25T04:16:31.790Z,11.20
2022-09-25T04:19:54.848Z,11.20
2022-09-25T04:23:16.528Z,11.20
2022-09-25T04:26:38.095Z,11.20
2022-09-25T04:29:59.660Z,11.20
2022-09-25T04:33:21.242Z,11.20
2022-09-25T04:36:44.115Z,11.20
2022-09-25T04:40:06.232Z,11.10
2022-09-25T04:43:27.926Z,11.10
2022-09-25T04:46:49.575Z,11.10
2022-09-25T04:50:11.206Z,11.10
2022-09-25T04:53:34.077Z,11.10
2022-09-25T04:56:55.615Z,11.10
2022-09-25T05:00:17.170Z,11.10
2022-09-25T05:03:38.812Z,11.10
2022-09-25T05:07:00.439Z,11.10
2022-09-25T05:10:23.866Z,11.00
2022-09-25T05:13:49.654Z,11.00
2022-09-25T05:17:11.330Z,11.10
2022-09-25T05:20:34.560Z,11.10
2022-09-25T05:23:56.116Z,11.10
2022-09-25T05:27:19.047Z,11.10
2022-09-25T05:30:40.598Z,11.10
2022-09-25T05:34:02.316Z,11.10
2022-09-25T05:37:23.876Z,11.10
2022-09-25T05:40:45.553Z,11.10
2022-09-25T05:44:08.525Z,11.10
2022-09-25T05:47:30.117Z,11.10
2022-09-25T05:50:52.005Z,11.10
2022-09-25T05:54:13.610Z,11.20
2022-09-25T05:57:35.885Z,11.20
2022-09-25T06:01:01.022Z,11.30
2022-09-25T06:04:22.597Z,11.40
2022-09-25T06:07:44.135Z,11.50
2022-09-25T06:11:06.193Z,11.50
2022-09-25T06:14:27.779Z,11.50
2022-09-25T06:17:50.708Z,11.50
2022-09-25T06:21:12.298Z,11.50
2022-09-25T06:24:33.860Z,11.50
2022-09-25T06:27:55.903Z,11.60
2022-09-25T06:31:17.496Z,11.60
2022-09-25T06:34:40.510Z,11.60
2022-09-25T06:38:02.697Z,11.70
2022-09-25T06:41:24.281Z,11.70
2022-09-25T06:44:45.834Z,11.90
2022-09-25T06:48:08.358Z,11.90
2022-09-25T06:51:34.141Z,12.00
2022-09-25T06:54:55.766Z,12.10
2022-09-25T06:58:18.562Z,12.20
2022-09-25T07:01:40.190Z,12.30
2022-09-25T07:05:01.834Z,12.50
2022-09-25T07:08:24.755Z,12.60
2022-09-25T07:11:46.316Z,12.70
2022-09-25T07:15:08.497Z,12.80
2022-09-25T07:18:30.293Z,12.90
2022-09-25T07:21:51.856Z,13.10
2022-09-25T07:25:14.735Z,13.20
2022-09-25T07:28:36.329Z,13.20
2022-09-25T07:31:58.775Z,13.20
2022-09-25T07:35:20.335Z,13.30
2022-09-25T07:38:42.187Z,13.20
2022-09-25T07:42:05.189Z,13.30
2022-09-25T07:45:26.884Z,13.20
2022-09-25T07:48:48.598Z,13.10
2022-09-25T07:52:10.152Z,13.10
2022-09-25T07:55:31.706Z,13.10
2022-09-25T07:58:54.629Z,13.20
2022-09-25T08:02:16.311Z,13.30
2022-09-25T08:05:37.905Z,13.40
2022-09-25T08:08:59.466Z,13.50
2022-09-25T08:12:21.287Z,13.60
2022-09-25T08:15:44.216Z,13.80
2022-09-25T08:19:05.828Z,13.70
2022-09-25T08:22:27.373Z,13.70
2022-09-25T08:25:48.937Z,13.90
2022-09-25T08:29:10.499Z,14.00
2022-09-25T08:32:34.549Z,14.30
2022-09-25T08:35:56.655Z,14.40
2022-09-25T08:39:18.265Z,14.60
2022-09-25T08:42:39.800Z,14.40
2022-09-25T08:46:03.248Z,14.50
2022-09-25T08:49:28.354Z,14.50
2022-09-25T08:52:51.361Z,14.50
2022-09-25T08:56:13.913Z,14.60
2022-09-25T08:59:37.462Z,14.90
2022-09-25T09:02:59.305Z,15.10
2022-09-25T09:06:23.236Z,15.20
2022-09-25T09:09:46.966Z,15.30
2022-09-25T09:13:13.191Z,15.20
2022-09-25T09:16:37.676Z,15.30
2022-09-25T09:19:59.965Z,15.50
2022-09-25T09:23:23.758Z,15.40
2022-09-25T09:26:51.882Z,15.30
2022-09-25T09:30:15.049Z,15.20
2022-09-25T09:33:41.788Z,15.50
2022-09-25T09:37:06.544Z,15.80
2022-09-25T09:40:51.683Z,16.10
2022-09-25T09:44:18.784Z,16.50
2022-09-25T09:47:43.512Z,16.50
2022-09-25T09:51:07.955Z,16.80
2022-09-25T09:54:32.458Z,17.20
2022-09-25T09:57:57.509Z,17.20
2022-09-25T10:05:04.350Z,16.90
2022-09-25T10:08:25.955Z,17.30
2022-09-25T10:11:50.738Z,17.40
2022-09-25T10:15:16.064Z,17.60
2022-09-25T10:18:40.318Z,17.90
2022-09-25T10:22:05.044Z,18.40
2022-09-25T10:25:36.811Z,18.30
2022-09-25T10:28:58.943Z,17.90
2022-09-25T10:32:21.916Z,17.80
2022-09-25T10:35:44.433Z,17.60
2022-09-25T10:39:42.748Z,17.30
2022-09-25T10:43:05.690Z,17.10
2022-09-25T10:46:28.531Z,17.10
2022-09-25T10:49:51.588Z,17.00
2022-09-25T10:53:24.134Z,17.00
2022-09-25T10:56:45.722Z,17.20
2022-09-25T11:00:18.816Z,17.50
2022-09-25T11:03:45.620Z,17.40
2022-09-25T11:07:16.887Z,17.60
2022-09-25T11:10:49.809Z,17.70
2022-09-25T11:14:18.995Z,17.70
2022-09-25T11:17:41.624Z,17.80
2022-09-25T11:21:04.033Z,17.80
2022-09-25T11:24:31.499Z,18.10
2022-09-25T11:27:56.154Z,18.20
2022-09-25T11:31:22.907Z,18.20
2022-09-25T11:34:54.393Z,18.30
2022-09-25T11:38:21.949Z,18.00
2022-09-25T11:41:46.645Z,17.70
2022-09-25T11:45:15.314Z,17.20
2022-09-25T11:48:48.809Z,16.90
2022-09-25T11:52:21.008Z,16.60
2022-09-25T11:55:51.340Z,16.50
2022-09-25T11:59:20.666Z,16.30
2022-09-25T12:02:52.703Z,16.30
2022-09-25T12:06:21.801Z,16.20
2022-09-25T12:09:50.764Z,16.10
2022-09-25T12:13:17.321Z,16.20
2022-09-25T12:16:43.336Z,16.40
2022-09-25T12:20:11.287Z,16.60
2022-09-25T12:23:33.811Z,16.60
2022-09-25T12:26:59.469Z,16.40
2022-09-25T12:30:21.693Z,16.10
2022-09-25T12:33:48.208Z,15.90
2022-09-25T12:37:13.348Z,15.60
2022-09-25T12:40:37.058Z,15.40
2022-09-25T12:44:02.100Z,14.90
2022-09-25T12:47:29.407Z,14.20
2022-09-25T12:50:55.147Z,13.90
2022-09-25T12:54:22.304Z,13.80
2022-09-25T12:57:44.926Z,13.60
2022-09-25T13:01:09.461Z,13.60
2022-09-25T13:04:37.670Z,13.90
2022-09-25T13:08:09.029Z,14.20
2022-09-25T13:11:34.888Z,14.60
2022-09-25T13:14:58.978Z,14.90
2022-09-25T13:18:21.886Z,15.10
2022-09-25T13:21:43.476Z,15.10
2022-09-25T13:25:15.268Z,15.10
2022-09-25T13:28:38.075Z,15.10
2022-09-25T13:32:03.415Z,15.30
2022-09-25T13:35:25.443Z,15.30
2022-09-25T13:38:47.067Z,15.60
2022-09-25T13:42:14.186Z,16.10
2022-09-25T13:45:35.795Z,16.30
2022-09-25T13:49:17.387Z,16.20
2022-09-25T13:52:51.315Z,16.10
2022-09-25T13:56:30.814Z,16.30
2022-09-25T14:00:01.523Z,16.50
2022-09-25T14:03:29.964Z,16.70
2022-09-25T14:06:53.120Z,17.10
2022-09-25T14:10:16.425Z,17.30
2022-09-25T14:13:38.058Z,17.50
2022-09-25T14:17:01.583Z,17.70
2022-09-25T14:20:29.693Z,17.60
2022-09-25T14:23:52.176Z,17.10
2022-09-25T14:27:24.578Z,16.40
2022-09-25T14:30:51.512Z,16.00
2022-09-25T14:34:24.169Z,15.60
2022-09-25T14:37:55.040Z,15.20
2022-09-25T14:41:26.102Z,15.00
2022-09-25T14:45:07.917Z,14.80
2022-09-25T14:48:33.527Z,14.80
2022-09-25T14:51:58.088Z,14.80
2022-09-25T14:55:21.256Z,15.00
2022-09-25T14:58:44.501Z,15.40
2022-09-25T15:02:11.600Z,15.60
2022-09-25T15:05:33.228Z,15.50
2022-09-25T15:08:56.224Z,15.40
2022-09-25T15:12:19.396Z,15.40
2022-09-25T15:15:41.313Z,15.30
2022-09-25T15:19:06.640Z,15.20
2022-09-25T15:22:30.057Z,15.10
2022-09-25T15:25:54.759Z,15.10
2022-09-25T15:29:17.327Z,15.10
2022-09-25T15:32:39.874Z,15.20
2022-09-25T15:36:03.109Z,15.20
2022-09-25T15:39:25.720Z,15.20
2022-09-25T15:42:49.265Z,15.10
2022-09-25T15:46:41.134Z,15.00
2022-09-25T15:50:03.292Z,15.00
2022-09-25T15:53:26.911Z,15.00
2022-09-25T15:56:50.939Z,15.10
2022-09-25T16:00:18.386Z,15.00
2022-09-25T16:03:45.670Z,14.90
2022-09-25T16:07:20.836Z,14.80
2022-09-25T16:10:46.380Z,14.80
2022-09-25T16:14:18.690Z,14.70
2022-09-25T16:17:41.608Z,14.60
2022-09-25T16:21:14.324Z,14.50
2022-09-25T16:24:35.967Z,14.40
2022-09-25T16:28:01.709Z,14.30
2022-09-25T16:31:23.400Z,14.20
2022-09-25T16:34:52.544Z,14.10
2022-09-25T16:38:25.811Z,14.00
2022-09-25T16:41:49.291Z,13.90
2022-09-25T16:45:14.689Z,13.90
2022-09-25T16:48:36.819Z,13.90
2022-09-25T16:52:00.401Z,13.80
2022-09-25T16:55:23.013Z,13.80
2022-09-25T16:58:44.564Z,13.60
2022-09-25T17:02:22.277Z,13.60
2022-09-25T17:05:43.977Z,13.50
2022-09-25T17:09:05.826Z,13.40
2022-09-25T17:12:27.698Z,13.40
2022-09-25T17:15:49.284Z,13.30
2022-09-25T17:19:13.852Z,13.30
2022-09-25T17:22:35.543Z,13.30
2022-09-25T17:26:00.599Z,13.20
2022-09-25T17:29:22.578Z,13.20
2022-09-25T17:32:44.954Z,13.10
2022-09-25T17:36:10.124Z,13.10
2022-09-25T17:39:31.700Z,13.00
2022-09-25T17:42:53.301Z,13.00
2022-09-25T17:46:14.951Z,13.00
2022-09-25T17:49:36.556Z,13.00
2022-09-25T17:52:59.461Z,13.00
2022-09-25T17:56:21.002Z,13.00
2022-09-25T17:59:42.551Z,12.90
2022-09-25T18:03:04.146Z,12.90
2022-09-25T18:06:26.471Z,12.80
2022-09-25T18:09:49.368Z,12.70
2022-09-25T18:13:12.326Z,12.60
2022-09-25T18:16:33.870Z,12.50
2022-09-25T18:19:55.433Z,12.50
2022-09-25T18:23:17.000Z,12.30
2022-09-25T18:26:40.275Z,12.30
2022-09-25T18:30:01.853Z,12.20
2022-09-25T18:33:23.697Z,12.20
2022-09-25T18:36:45.292Z,12.10
2022-09-25T18:40:07.324Z,12.00
2022-09-25T18:43:30.376Z,12.00
2022-09-25T18:46:52.201Z,11.90
2022-09-25T18:50:19.586Z,11.90
2022-09-25T18:53:41.407Z,11.90
2022-09-25T18:57:04.212Z,11.90
2022-09-25T19:00:27.184Z,11.90
2022-09-25T19:03:49.254Z,11.90
2022-09-25T19:07:10.890Z,12.00
2022-09-25T19:10:32.470Z,12.00
2022-09-25T19:13:54.145Z,12.00
2022-09-25T19:17:17.706Z,12.00
2022-09-25T19:20:46.282Z,12.10
2022-09-25T19:24:07.870Z,12.10
2022-09-25T19:27:31.480Z,12.20
2022-09-25T19:30:56.922Z,12.20
2022-09-25T19:34:19.823Z,12.20
2022-09-25T19:37:41.398Z,12.30
2022-09-25T19:41:03.575Z,12.30
2022-09-25T19:44:26.629Z,12.30
2022-09-25T19:47:48.196Z,12.30
2022-09-25T19:51:11.564Z,12.30
2022-09-25T19:54:33.208Z,12.30
2022-09-25T19:57:55.300Z,12.30
2022-09-25T20:01:18.708Z,12.30
2022-09-25T20:04:40.309Z,12.30
2022-09-25T20:08:03.355Z,12.30
2022-09-25T20:11:25.422Z,12.20
2022-09-25T20:14:47.633Z,12.20
2022-09-25T20:18:09.190Z,12.20
2022-09-25T20:21:33.433Z,12.20
2022-09-25T20:24:56.344Z,12.10
2022-09-25T20:28:17.903Z,12.10
2022-09-25T20:31:40.242Z,12.00
2022-09-25T20:35:01.868Z,12.00
2022-09-25T20:38:23.447Z,11.90
2022-09-25T20:41:46.345Z,11.80
2022-09-25T20:45:08.228Z,11.80
2022-09-25T20:48:30.211Z,11.80
2022-09-25T20:51:51.765Z,11.70
2022-09-25T20:55:13.328Z,11.60
2022-09-25T20:58:36.846Z,11.60
2022-09-25T21:01:58.632Z,11.70
2022-09-25T21:05:20.252Z,11.60
2022-09-25T21:08:41.801Z,11.60
2022-09-25T21:12:03.531Z,11.60
2022-09-25T21:15:26.407Z,11.60
2022-09-25T21:18:51.098Z,11.60
2022-09-25T21:22:12.702Z,11.60
2022-09-25T21:25:34.343Z,11.60
2022-09-25T21:28:56.779Z,11.60
2022-09-25T21:32:19.700Z,11.60
2022-09-25T21:35:45.766Z,11.60
2022-09-25T21:39:07.636Z,11.60
2022-09-25T21:42:29.859Z,11.60
2022-09-25T21:45:51.440Z,11.50
2022-09-25T21:49:15.762Z,11.60
2022-09-25T21:52:38.485Z,11.50
2022-09-25T21:56:00.383Z,11.60
2022-09-25T21:59:22.109Z,11.50
2022-09-25T22:02:43.709Z,11.50
2022-09-25T22:06:07.551Z,11.50
2022-09-25T22:09:29.397Z,11.50
2022-09-25T22:12:51.956Z,11.50
2022-09-25T22:16:14.773Z,11.50
2022-09-25T22:19:36.392Z,11.40
2022-09-25T22:22:59.301Z,11.40
2022-09-25T22:26:21.422Z,11.40
2022-09-25T22:29:42.961Z,11.40
2022-09-25T22:33:04.541Z,11.40
2022-09-25T22:36:26.485Z,11.30
2022-09-25T22:39:49.368Z,11.30
2022-09-25T22:43:10.951Z,11.30
2022-09-25T22:46:32.519Z,11.30
2022-09-25T22:49:54.085Z,11.30
2022-09-25T22:53:15.656Z,11.30
2022-09-25T22:56:38.623Z,11.20
2022-09-25T23:00:00.340Z,11.30
2022-09-25T23:03:24.673Z,11.30
2022-09-25T23:06:46.461Z,11.20
2022-09-25T23:10:08.627Z,11.20
2022-09-25T23:13:31.973Z,11.20
2022-09-25T23:16:54.305Z,11.20
2022-09-25T23:20:15.930Z,11.20
2022-09-25T23:23:37.495Z,11.20
2022-09-25T23:26:59.058Z,11.20
2022-09-25T23:30:21.959Z,11.20
2022-09-25T23:33:44.024Z,11.10
2022-09-25T23:37:05.574Z,11.10
2022-09-25T23:40:27.408Z,11.20
2022-09-25T23:43:50.262Z,11.20
2022-09-25T23:47:13.127Z,11.20
2022-09-25T23:50:34.679Z,11.20
2022-09-25T23:53:57.586Z,11.20
2022-09-25T23:57:19.160Z,11.10
